createdAt,value
2023-05-01T00:01:49.384Z,96229.97
2023-05-01T00:04:15.821Z,96231.69
2023-05-01T00:06:42.247Z,96233.41
2023-05-01T00:09:08.634Z,96230.63
2023-05-01T00:11:34.925Z,96218.53
2023-05-01T00:14:01.225Z,96217.09
2023-05-01T00:16:31.748Z,96225.69
2023-05-01T00:18:58.083Z,96224.31
2023-05-01T00:21:24.385Z,96218.72
2023-05-01T00:23:50.703Z,96215.72
2023-05-01T00:26:16.990Z,96208.84
2023-05-01T00:28:43.808Z,96201.31
2023-05-01T00:31:10.134Z,96200.75
2023-05-01T00:33:36.425Z,96195.81
2023-05-01T00:36:02.727Z,96189.59
2023-05-01T00:38:29.060Z,96195.47
2023-05-01T00:40:55.355Z,96194.41
2023-05-01T00:43:21.665Z,96189.75
2023-05-01T00:45:48.066Z,96194.03
2023-05-01T00:48:14.440Z,96187.06
2023-05-01T00:50:40.756Z,96175.41
2023-05-01T00:53:07.081Z,96176.13
2023-05-01T00:55:33.384Z,96179.28
2023-05-01T00:57:59.686Z,96179.59
2023-05-01T01:00:26.113Z,96170.22
2023-05-01T01:02:52.458Z,96161.59
2023-05-01T01:05:18.784Z,96161.34
2023-05-01T01:07:45.128Z,96161.50
2023-05-01T01:10:11.445Z,96162.53
2023-05-01T01:12:37.779Z,96154.59
2023-05-01T01:15:04.109Z,96161.53
2023-05-01T01:17:30.427Z,96154.00
2023-05-01T01:19:56.959Z,96149.75
2023-05-01T01:22:23.545Z,96155.13
2023-05-01T01:24:49.845Z,96156.44
2023-05-01T01:27:16.154Z,96145.56
2023-05-01T01:29:42.470Z,96150.09
2023-05-01T01:32:08.768Z,96155.41
2023-05-01T01:34:35.080Z,96153.19
2023-05-01T01:37:01.395Z,96151.78
2023-05-01T01:39:27.691Z,96145.66
2023-05-01T01:41:53.984Z,96155.84
2023-05-01T01:44:20.298Z,96158.41
2023-05-01T01:46:46.629Z,96153.19
2023-05-01T01:49:12.958Z,96157.50
2023-05-01T01:51:39.314Z,96152.81
2023-05-01T01:54:05.613Z,96155.50
2023-05-01T01:56:31.903Z,96160.47
2023-05-01T01:58:58.219Z,96159.47
2023-05-01T02:01:24.604Z,96162.81
2023-05-01T02:03:51.027Z,96156.22
2023-05-01T02:06:17.492Z,96155.34
2023-05-01T02:08:43.848Z,96157.69
2023-05-01T02:11:10.149Z,96157.81
2023-05-01T02:13:36.468Z,96147.59
2023-05-01T02:16:02.827Z,96152.00
2023-05-01T02:18:29.271Z,96152.44
2023-05-01T02:20:55.585Z,96148.22
2023-05-01T02:23:21.880Z,96153.34
2023-05-01T02:25:48.193Z,96154.72
2023-05-01T02:28:14.504Z,96148.34
2023-05-01T02:30:40.807Z,96148.75
2023-05-01T02:33:07.160Z,96150.47
2023-05-01T02:35:33.516Z,96152.38
2023-05-01T02:37:59.817Z,96151.78
2023-05-01T02:40:26.117Z,96148.13
2023-05-01T02:42:54.565Z,96149.47
2023-05-01T02:45:20.921Z,96144.78
2023-05-01T02:47:47.325Z,96151.63
2023-05-01T02:50:13.674Z,96149.94
2023-05-01T02:52:39.997Z,96144.53
2023-05-01T02:55:06.352Z,96141.41
2023-05-01T02:57:32.704Z,96140.84
2023-05-01T02:59:58.999Z,96146.75
2023-05-01T03:02:25.304Z,96145.28
2023-05-01T03:04:51.625Z,96131.91
2023-05-01T03:07:17.935Z,96127.09
2023-05-01T03:09:44.259Z,96131.22
2023-05-01T03:12:10.588Z,96125.53
2023-05-01T03:14:36.899Z,96122.81
2023-05-01T03:17:03.212Z,96128.03
2023-05-01T03:19:29.524Z,96119.75
2023-05-01T03:21:55.825Z,96119.69
2023-05-01T03:24:22.125Z,96123.88
2023-05-01T03:26:48.443Z,96126.88
2023-05-01T03:29:14.736Z,96122.88
2023-05-01T03:31:41.117Z,96112.47
2023-05-01T03:34:07.497Z,96122.28
2023-05-01T03:36:33.834Z,96113.72
2023-05-01T03:39:00.157Z,96117.63
2023-05-01T03:41:26.479Z,96116.75
2023-05-01T03:43:52.796Z,96119.97
2023-05-01T03:46:19.142Z,96125.81
2023-05-01T03:48:45.517Z,96117.97
2023-05-01T03:51:11.852Z,96117.31
2023-05-01T03:53:38.176Z,96125.59
2023-05-01T03:56:04.521Z,96121.78
2023-05-01T03:58:30.870Z,96125.69
2023-05-01T04:00:57.198Z,96112.41
2023-05-01T04:03:23.665Z,96128.47
2023-05-01T04:05:50.019Z,96125.09
2023-05-01T04:08:16.342Z,96130.25
2023-05-01T04:10:42.656Z,96133.72
2023-05-01T04:13:08.947Z,96127.81
2023-05-01T04:15:35.244Z,96137.28
2023-05-01T04:18:01.690Z,96136.28
2023-05-01T04:20:28.172Z,96142.78
2023-05-01T04:22:54.484Z,96142.03
2023-05-01T04:25:20.821Z,96136.06
2023-05-01T04:27:47.213Z,96140.75
2023-05-01T04:30:13.516Z,96142.00
2023-05-01T04:32:39.864Z,96145.69
2023-05-01T04:35:06.164Z,96138.75
2023-05-01T04:37:32.461Z,96138.31
2023-05-01T04:39:58.893Z,96142.03
2023-05-01T04:42:25.330Z,96145.69
2023-05-01T04:44:51.632Z,96146.25
2023-05-01T04:47:17.952Z,96147.16
2023-05-01T04:49:44.263Z,96149.72
2023-05-01T04:52:10.570Z,96148.81
2023-05-01T04:54:36.885Z,96150.97
2023-05-01T04:57:03.200Z,96152.38
2023-05-01T04:59:29.518Z,96153.97
2023-05-01T05:01:55.930Z,96164.47
2023-05-01T05:04:22.354Z,96161.44
2023-05-01T05:06:48.757Z,96168.94
2023-05-01T05:09:16.503Z,96161.69
2023-05-01T05:11:44.278Z,96162.13
2023-05-01T05:14:10.562Z,96157.31
2023-05-01T05:16:36.891Z,96164.47
2023-05-01T05:19:03.193Z,96173.06
2023-05-01T05:21:29.515Z,96168.28
2023-05-01T05:23:55.841Z,96169.38
2023-05-01T05:26:22.158Z,96171.94
2023-05-01T05:28:48.461Z,96167.16
2023-05-01T05:31:14.790Z,96168.72
2023-05-01T05:33:41.096Z,96168.59
2023-05-01T05:36:07.415Z,96173.41
2023-05-01T05:38:33.824Z,96175.31
2023-05-01T05:41:00.135Z,96171.03
2023-05-01T05:43:28.104Z,96170.03
2023-05-01T05:45:54.690Z,96179.09
2023-05-01T05:48:21.070Z,96173.38
2023-05-01T05:50:47.403Z,96173.75
2023-05-01T05:53:13.727Z,96172.59
2023-05-01T05:55:40.023Z,96161.78
2023-05-01T05:58:06.355Z,96171.72
2023-05-01T06:00:32.824Z,96165.66
2023-05-01T06:02:59.203Z,96165.13
2023-05-01T06:05:26.744Z,96171.13
2023-05-01T06:07:54.091Z,96169.34
2023-05-01T06:10:20.380Z,96163.75
2023-05-01T06:12:54.912Z,96161.78
2023-05-01T06:15:30.465Z,96162.97
2023-05-01T06:17:56.822Z,96160.53
2023-05-01T06:20:23.146Z,96165.53
2023-05-01T06:22:49.471Z,96165.34
2023-05-01T06:25:15.780Z,96169.97
2023-05-01T06:27:42.079Z,96171.63
2023-05-01T06:30:08.420Z,96164.91
2023-05-01T06:32:34.756Z,96162.50
2023-05-01T06:35:01.070Z,96168.22
2023-05-01T06:37:27.673Z,96163.19
2023-05-01T06:39:56.257Z,96165.50
2023-05-01T06:42:22.698Z,96173.25
2023-05-01T06:44:49.014Z,96173.44
2023-05-01T06:47:15.362Z,96178.38
2023-05-01T06:49:41.690Z,96184.19
2023-05-01T06:52:08.027Z,96178.41
2023-05-01T06:54:34.334Z,96181.84
2023-05-01T06:57:00.647Z,96177.72
2023-05-01T06:59:26.961Z,96185.09
2023-05-01T07:01:53.293Z,96191.25
2023-05-01T07:04:19.619Z,96201.22
2023-05-01T07:06:46.035Z,96191.72
2023-05-01T07:09:12.386Z,96186.78
2023-05-01T07:11:38.692Z,96190.41
2023-05-01T07:14:05.021Z,96196.41
2023-05-01T07:16:31.370Z,96189.38
2023-05-01T07:18:57.733Z,96187.13
2023-05-01T07:21:24.111Z,96189.44
2023-05-01T07:23:50.458Z,96188.44
2023-05-01T07:26:16.790Z,96201.13
2023-05-01T07:28:43.118Z,96211.88
2023-05-01T07:31:09.436Z,96200.75
2023-05-01T07:33:35.750Z,96213.88
2023-05-01T07:36:02.068Z,96212.88
2023-05-01T07:38:28.376Z,96208.84
2023-05-01T07:40:54.676Z,96201.47
2023-05-01T07:43:20.995Z,96197.97
2023-05-01T07:45:47.509Z,96203.94
2023-05-01T07:48:14.098Z,96202.69
2023-05-01T07:50:40.457Z,96202.69
2023-05-01T07:53:06.771Z,96201.00
2023-05-01T07:55:33.073Z,96212.97
2023-05-01T07:57:59.412Z,96206.59
2023-05-01T08:00:25.725Z,96214.97
2023-05-01T08:02:52.420Z,96201.53
2023-05-01T08:05:18.900Z,96209.13
2023-05-01T08:07:45.195Z,96211.84
2023-05-01T08:10:11.501Z,96215.97
2023-05-01T08:12:37.927Z,96207.91
2023-05-01T08:15:04.256Z,96211.69
2023-05-01T08:17:30.653Z,96216.31
2023-05-01T08:19:57.309Z,96206.22
2023-05-01T08:22:23.833Z,96214.28
2023-05-01T08:24:50.151Z,96215.97
2023-05-01T08:27:16.534Z,96214.94
2023-05-01T08:29:42.848Z,96210.72
2023-05-01T08:32:09.183Z,96223.03
2023-05-01T08:34:35.535Z,96220.66
2023-05-01T08:37:01.873Z,96221.81
2023-05-01T08:39:28.164Z,96215.53
2023-05-01T08:41:54.482Z,96221.25
2023-05-01T08:44:20.786Z,96224.16
2023-05-01T08:46:47.131Z,96223.59
2023-05-01T08:49:13.514Z,96220.69
2023-05-01T08:51:39.819Z,96220.56
2023-05-01T08:54:06.133Z,96218.56
2023-05-01T08:56:32.473Z,96218.56
2023-05-01T08:58:58.798Z,96220.66
2023-05-01T09:01:25.177Z,96229.50
2023-05-01T09:03:51.575Z,96224.28
2023-05-01T09:06:17.989Z,96232.06
2023-05-01T09:08:44.461Z,96221.47
2023-05-01T09:11:10.800Z,96228.28
2023-05-01T09:13:37.115Z,96219.97
2023-05-01T09:16:03.461Z,96231.53
2023-05-01T09:18:29.829Z,96228.44
2023-05-01T09:20:56.131Z,96233.81
2023-05-01T09:23:22.424Z,96232.72
2023-05-01T09:25:51.400Z,96227.03
2023-05-01T09:28:18.306Z,96226.16
2023-05-01T09:30:44.605Z,96228.47
2023-05-01T09:33:11.062Z,96226.66
2023-05-01T09:35:37.507Z,96230.22
2023-05-01T09:38:03.800Z,96226.66
2023-05-01T09:40:30.124Z,96233.06
2023-05-01T09:42:56.422Z,96235.91
2023-05-01T09:45:22.732Z,96237.13
2023-05-01T09:47:49.089Z,96238.78
2023-05-01T09:50:15.407Z,96246.25
2023-05-01T09:52:41.711Z,96246.50
2023-05-01T09:55:08.036Z,96241.41
2023-05-01T09:57:34.340Z,96242.31
2023-05-01T10:00:00.636Z,96245.69
2023-05-01T10:02:27.053Z,96240.84
2023-05-01T10:04:53.416Z,96244.88
2023-05-01T10:07:19.722Z,96235.91
2023-05-01T10:09:46.055Z,96243.31
2023-05-01T10:12:12.346Z,96242.22
2023-05-01T10:14:38.712Z,96239.63
2023-05-01T10:17:05.093Z,96242.47
2023-05-01T10:19:31.458Z,96243.50
2023-05-01T10:21:57.792Z,96246.25
2023-05-01T10:24:24.121Z,96249.66
2023-05-01T10:26:50.447Z,96249.97
2023-05-01T10:29:16.741Z,96246.13
2023-05-01T10:31:43.142Z,96250.00
2023-05-01T10:34:09.491Z,96246.66
2023-05-01T10:36:35.834Z,96249.78
2023-05-01T10:39:03.132Z,96255.59
2023-05-01T10:41:29.564Z,96259.56
2023-05-01T10:43:55.907Z,96256.81
2023-05-01T10:46:22.266Z,96260.31
2023-05-01T10:48:48.593Z,96265.72
2023-05-01T10:51:14.906Z,96260.59
2023-05-01T10:53:41.257Z,96263.19
2023-05-01T10:56:07.556Z,96260.38
2023-05-01T10:58:33.868Z,96255.06
2023-05-01T11:01:00.191Z,96253.56
2023-05-01T11:03:26.497Z,96252.97
2023-05-01T11:05:52.807Z,96245.47
2023-05-01T11:08:19.151Z,96250.06
2023-05-01T11:10:45.443Z,96259.19
2023-05-01T11:13:11.739Z,96246.16
2023-05-01T11:15:38.052Z,96245.16
2023-05-01T11:18:04.409Z,96248.19
2023-05-01T11:20:30.714Z,96248.53
2023-05-01T11:22:57.024Z,96252.63
2023-05-01T11:25:23.312Z,96251.34
2023-05-01T11:27:49.611Z,96241.06
2023-05-01T11:30:19.128Z,96241.53
2023-05-01T11:32:45.470Z,96246.50
2023-05-01T11:35:11.798Z,96243.50
2023-05-01T11:37:38.110Z,96238.66
2023-05-01T11:40:04.415Z,96241.38
2023-05-01T11:42:30.778Z,96241.66
2023-05-01T11:44:57.924Z,96240.34
2023-05-01T11:47:24.413Z,96240.81
2023-05-01T11:49:50.759Z,96241.56
2023-05-01T11:52:17.078Z,96242.50
2023-05-01T11:54:43.381Z,96246.25
2023-05-01T11:57:09.690Z,96246.19
2023-05-01T11:59:36.008Z,96250.63
2023-05-01T12:02:02.342Z,96245.19
2023-05-01T12:04:32.071Z,96256.66
2023-05-01T12:06:58.930Z,96247.53
2023-05-01T12:09:25.248Z,96241.31
2023-05-01T12:11:52.707Z,96243.53
2023-05-01T12:14:19.538Z,96238.50
2023-05-01T12:16:45.899Z,96244.59
2023-05-01T12:19:12.211Z,96246.09
2023-05-01T12:21:39.041Z,96249.13
2023-05-01T12:24:05.338Z,96243.53
2023-05-01T12:26:31.651Z,96234.03
2023-05-01T12:28:58.123Z,96239.16
2023-05-01T12:31:24.487Z,96251.06
2023-05-01T12:33:50.820Z,96247.81
2023-05-01T12:36:17.130Z,96245.44
2023-05-01T12:38:43.438Z,96242.72
2023-05-01T12:41:09.771Z,96242.16
2023-05-01T12:43:36.088Z,96242.53
2023-05-01T12:46:02.420Z,96256.59
2023-05-01T12:48:28.751Z,96239.97
2023-05-01T12:50:55.300Z,96245.22
2023-05-01T12:53:21.670Z,96241.66
2023-05-01T12:55:47.966Z,96238.28
2023-05-01T12:58:14.289Z,96239.03
2023-05-01T13:00:40.594Z,96240.81
2023-05-01T13:03:07.037Z,96229.66
2023-05-01T13:05:33.606Z,96232.84
2023-05-01T13:07:59.958Z,96222.78
2023-05-01T13:10:29.581Z,96221.56
2023-05-01T13:12:55.908Z,96223.16
2023-05-01T13:15:22.212Z,96224.50
2023-05-01T13:17:48.571Z,96223.91
2023-05-01T13:20:14.906Z,96224.88
2023-05-01T13:22:41.200Z,96219.59
2023-05-01T13:25:07.711Z,96215.88
2023-05-01T13:27:34.090Z,96225.19
2023-05-01T13:30:00.912Z,96228.47
2023-05-01T13:32:27.607Z,96226.72
2023-05-01T13:34:54.077Z,96238.47
2023-05-01T13:37:20.421Z,96236.25
2023-05-01T13:39:46.725Z,96235.81
2023-05-01T13:42:13.054Z,96230.13
2023-05-01T13:44:39.356Z,96240.22
2023-05-01T13:47:05.650Z,96239.88
2023-05-01T13:49:31.988Z,96237.09
2023-05-01T13:51:58.296Z,96235.59
2023-05-01T13:54:25.484Z,96228.81
2023-05-01T13:56:51.843Z,96222.66
2023-05-01T13:59:18.134Z,96226.25
2023-05-01T14:01:44.508Z,96226.97
2023-05-01T14:04:10.878Z,96231.69
2023-05-01T14:06:37.226Z,96227.50
2023-05-01T14:09:03.527Z,96226.53
2023-05-01T14:11:29.847Z,96242.28
2023-05-01T14:13:56.152Z,96233.50
2023-05-01T14:16:22.479Z,96228.16
2023-05-01T14:18:48.844Z,96219.56
2023-05-01T14:21:15.145Z,96232.72
2023-05-01T14:23:41.438Z,96223.09
2023-05-01T14:26:07.767Z,96220.00
2023-05-01T14:28:34.075Z,96218.88
2023-05-01T14:31:00.422Z,96213.50
2023-05-01T14:33:26.760Z,96213.91
2023-05-01T14:35:53.058Z,96222.56
2023-05-01T14:38:19.368Z,96218.88
2023-05-01T14:40:45.700Z,96219.69
2023-05-01T14:43:11.998Z,96220.75
2023-05-01T14:45:38.322Z,96221.25
2023-05-01T14:48:04.684Z,96213.94
2023-05-01T14:50:31.038Z,96216.72
2023-05-01T14:52:57.342Z,96213.47
2023-05-01T14:55:23.679Z,96216.75
2023-05-01T14:57:49.979Z,96212.41
2023-05-01T15:00:16.274Z,96218.84
2023-05-01T15:02:42.748Z,96216.03
2023-05-01T15:05:09.206Z,96226.84
2023-05-01T15:07:35.516Z,96218.41
2023-05-01T15:10:01.886Z,96220.78
2023-05-01T15:12:28.327Z,96220.28
2023-05-01T15:14:54.616Z,96216.44
2023-05-01T15:17:21.025Z,96230.25
2023-05-01T15:19:47.353Z,96232.38
2023-05-01T15:22:13.664Z,96241.59
2023-05-01T15:24:39.981Z,96238.84
2023-05-01T15:27:06.282Z,96248.66
2023-05-01T15:29:32.580Z,96245.75
2023-05-01T15:32:10.850Z,96243.50
2023-05-01T15:34:38.062Z,96247.25
2023-05-01T15:37:04.398Z,96245.25
2023-05-01T15:39:30.719Z,96242.16
2023-05-01T15:41:57.057Z,96239.81
2023-05-01T15:44:23.378Z,96246.59
2023-05-01T15:46:49.767Z,96253.28
2023-05-01T15:49:16.102Z,96254.00
2023-05-01T15:51:42.415Z,96256.75
2023-05-01T15:54:08.705Z,96260.75
2023-05-01T15:56:35.007Z,96265.75
2023-05-01T15:59:01.315Z,96277.56
2023-05-01T16:01:27.955Z,96276.00
2023-05-01T16:03:54.364Z,96276.38
2023-05-01T16:06:20.920Z,96271.50
2023-05-01T16:08:47.338Z,96277.81
2023-05-01T16:11:13.644Z,96275.09
2023-05-01T16:13:40.390Z,96278.56
2023-05-01T16:16:06.793Z,96284.44
2023-05-01T16:18:33.258Z,96290.97
2023-05-01T16:20:59.902Z,96292.19
2023-05-01T16:23:26.208Z,96289.22
2023-05-01T16:25:52.491Z,96283.22
2023-05-01T16:28:18.895Z,96292.53
2023-05-01T16:30:45.472Z,96291.22
2023-05-01T16:33:11.793Z,96302.09
2023-05-01T16:35:38.174Z,96298.97
2023-05-01T16:38:04.489Z,96302.03
2023-05-01T16:40:30.802Z,96294.94
2023-05-01T16:42:57.119Z,96302.00
2023-05-01T16:45:23.501Z,96293.63
2023-05-01T16:47:49.879Z,96299.72
2023-05-01T16:50:16.256Z,96302.16
2023-05-01T16:52:42.562Z,96296.06
2023-05-01T16:55:08.864Z,96297.31
2023-05-01T16:57:35.179Z,96284.19
2023-05-01T17:00:01.649Z,96286.53
2023-05-01T17:02:28.523Z,96291.13
2023-05-01T17:04:54.919Z,96296.78
2023-05-01T17:07:21.300Z,96304.34
2023-05-01T17:09:47.585Z,96304.03
2023-05-01T17:12:13.972Z,96309.47
2023-05-01T17:14:41.830Z,96305.50
2023-05-01T17:17:09.594Z,96306.44
2023-05-01T17:19:36.056Z,96310.97
2023-05-01T17:22:02.369Z,96309.94
2023-05-01T17:24:28.677Z,96311.75
2023-05-01T17:26:54.991Z,96311.69
2023-05-01T17:29:21.305Z,96317.81
2023-05-01T17:31:47.638Z,96307.41
2023-05-01T17:34:13.996Z,96313.50
2023-05-01T17:36:40.316Z,96318.84
2023-05-01T17:39:06.798Z,96320.34
2023-05-01T17:41:33.288Z,96309.06
2023-05-01T17:43:59.655Z,96319.72
2023-05-01T17:46:26.041Z,96317.31
2023-05-01T17:48:52.509Z,96319.44
2023-05-01T17:51:18.840Z,96320.66
2023-05-01T17:53:45.163Z,96324.75
2023-05-01T17:56:11.504Z,96322.13
2023-05-01T17:58:37.805Z,96327.88
2023-05-01T18:01:04.145Z,96320.69
2023-05-01T18:03:30.647Z,96331.09
2023-05-01T18:05:57.002Z,96331.28
2023-05-01T18:08:23.306Z,96332.16
2023-05-01T18:10:49.627Z,96326.06
2023-05-01T18:13:15.930Z,96330.00
2023-05-01T18:15:42.222Z,96326.25
2023-05-01T18:18:08.659Z,96322.88
2023-05-01T18:20:34.980Z,96327.09
2023-05-01T18:23:01.311Z,96322.50
2023-05-01T18:25:27.664Z,96327.00
2023-05-01T18:27:53.978Z,96323.78
2023-05-01T18:30:20.283Z,96334.00
2023-05-01T18:32:48.773Z,96331.78
2023-05-01T18:35:15.445Z,96333.13
2023-05-01T18:37:41.743Z,96334.56
2023-05-01T18:40:08.058Z,96340.44
2023-05-01T18:42:34.355Z,96338.31
2023-05-01T18:45:00.641Z,96340.03
2023-05-01T18:47:26.993Z,96345.06
2023-05-01T18:49:53.310Z,96343.63
2023-05-01T18:52:19.614Z,96339.03
2023-05-01T18:54:45.951Z,96349.13
2023-05-01T18:57:12.268Z,96349.22
2023-05-01T18:59:38.588Z,96354.34
2023-05-01T19:02:05.034Z,96349.09
2023-05-01T19:04:32.138Z,96353.81
2023-05-01T19:06:59.404Z,96361.97
2023-05-01T19:09:25.757Z,96361.25
2023-05-01T19:11:53.763Z,96369.91
2023-05-01T19:14:20.574Z,96373.03
2023-05-01T19:16:47.205Z,96366.06
2023-05-01T19:19:13.625Z,96380.75
2023-05-01T19:21:39.917Z,96387.47
2023-05-01T19:24:06.282Z,96384.31
2023-05-01T19:26:33.020Z,96386.31
2023-05-01T19:28:59.482Z,96395.47
2023-05-01T19:31:25.897Z,96397.16
2023-05-01T19:33:52.330Z,96392.66
2023-05-01T19:36:18.618Z,96393.56
2023-05-01T19:38:45.041Z,96400.00
2023-05-01T19:41:11.328Z,96397.91
2023-05-01T19:43:37.633Z,96403.97
2023-05-01T19:46:04.298Z,96399.88
2023-05-01T19:48:30.706Z,96408.16
2023-05-01T19:50:57.006Z,96401.38
2023-05-01T19:53:23.325Z,96406.56
2023-05-01T19:55:49.630Z,96410.41
2023-05-01T19:58:15.929Z,96412.69
2023-05-01T20:00:42.293Z,96412.13
2023-05-01T20:03:08.677Z,96423.69
2023-05-01T20:05:35.089Z,96431.56
2023-05-01T20:08:01.414Z,96432.69
2023-05-01T20:10:27.718Z,96434.59
2023-05-01T20:12:54.048Z,96435.09
2023-05-01T20:15:20.370Z,96441.28
2023-05-01T20:17:46.687Z,96449.97
2023-05-01T20:20:13.075Z,96448.50
2023-05-01T20:22:39.412Z,96449.84
2023-05-01T20:25:07.454Z,96456.09
2023-05-01T20:27:38.285Z,96457.00
2023-05-01T20:30:04.757Z,96456.09
2023-05-01T20:32:31.139Z,96462.69
2023-05-01T20:34:57.549Z,96465.69
2023-05-01T20:37:23.899Z,96465.38
2023-05-01T20:39:50.192Z,96467.31
2023-05-01T20:42:16.492Z,96471.19
2023-05-01T20:44:42.804Z,96473.91
2023-05-01T20:47:09.103Z,96475.41
2023-05-01T20:49:35.396Z,96466.84
2023-05-01T20:52:01.702Z,96468.63
2023-05-01T20:54:27.995Z,96474.16
2023-05-01T20:56:54.288Z,96470.91
2023-05-01T20:59:20.603Z,96482.94
2023-05-01T21:01:46.921Z,96477.69
2023-05-01T21:04:13.539Z,96468.66
2023-05-01T21:06:39.966Z,96469.50
2023-05-01T21:09:06.311Z,96473.44
2023-05-01T21:11:32.604Z,96471.81
2023-05-01T21:13:59.157Z,96473.66
2023-05-01T21:16:25.515Z,96471.13
2023-05-01T21:18:51.950Z,96465.59
2023-05-01T21:21:18.267Z,96465.97
2023-05-01T21:23:44.563Z,96470.84
2023-05-01T21:26:10.841Z,96465.59
2023-05-01T21:28:37.161Z,96463.44
2023-05-01T21:31:03.512Z,96467.16
2023-05-01T21:33:29.811Z,96464.81
2023-05-01T21:35:56.159Z,96460.06
2023-05-01T21:38:22.453Z,96450.06
2023-05-01T21:40:48.735Z,96460.28
2023-05-01T21:43:15.045Z,96463.81
2023-05-01T21:45:41.345Z,96458.81
2023-05-01T21:48:07.766Z,96464.59
2023-05-01T21:50:34.151Z,96458.53
2023-05-01T21:53:00.454Z,96461.81
2023-05-01T21:55:26.757Z,96456.28
2023-05-01T21:57:53.070Z,96452.22
2023-05-01T22:00:19.411Z,96458.31
2023-05-01T22:02:45.817Z,96458.13
2023-05-01T22:05:12.185Z,96457.75
2023-05-01T22:07:40.927Z,96454.25
2023-05-01T22:10:07.232Z,96460.44
2023-05-01T22:12:33.550Z,96464.97
2023-05-01T22:14:59.855Z,96470.09
2023-05-01T22:17:26.165Z,96468.09
2023-05-01T22:19:52.513Z,96466.16
2023-05-01T22:22:19.236Z,96472.53
2023-05-01T22:24:45.696Z,96479.97
2023-05-01T22:27:12.000Z,96478.69
2023-05-01T22:29:38.298Z,96493.69
2023-05-01T22:32:04.618Z,96489.47
2023-05-01T22:34:30.984Z,96488.09
2023-05-01T22:36:57.292Z,96484.59
2023-05-01T22:39:23.600Z,96488.16
2023-05-01T22:41:49.952Z,96487.47
2023-05-01T22:44:16.247Z,96479.63
2023-05-01T22:46:42.573Z,96490.19
2023-05-01T22:49:08.901Z,96486.09
2023-05-01T22:51:35.219Z,96490.63
2023-05-01T22:54:01.516Z,96494.03
2023-05-01T22:56:27.861Z,96499.88
2023-05-01T22:58:54.180Z,96494.31
2023-05-01T23:01:20.530Z,96500.56
2023-05-01T23:03:47.071Z,96498.13
2023-05-01T23:06:13.517Z,96508.16
2023-05-01T23:08:39.890Z,96504.59
2023-05-01T23:11:06.222Z,96498.50
2023-05-01T23:13:32.526Z,96502.84
2023-05-01T23:15:58.846Z,96503.88
2023-05-01T23:18:25.287Z,96501.47
2023-05-01T23:20:51.605Z,96493.75
2023-05-01T23:23:17.927Z,96497.44
2023-05-01T23:25:44.249Z,96501.81
2023-05-01T23:28:10.551Z,96491.66
2023-05-01T23:30:36.838Z,96502.03
2023-05-01T23:33:03.220Z,96502.47
2023-05-01T23:35:29.596Z,96500.16
2023-05-01T23:37:55.904Z,96501.25
2023-05-01T23:40:22.264Z,96490.63
2023-05-01T23:42:48.585Z,96486.06
2023-05-01T23:45:14.890Z,96490.88
2023-05-01T23:47:41.343Z,96493.59
2023-05-01T23:50:07.679Z,96498.56
2023-05-01T23:52:33.990Z,96497.28
2023-05-01T23:55:00.296Z,96496.56
2023-05-01T23:57:26.586Z,96486.19
2023-05-01T23:59:53.881Z,96493.31
